createdAt,value
2018-04-19T00:00:45.367Z,0
2018-04-19T00:01:46.095Z,0
2018-04-19T00:02:46.826Z,0
2018-04-19T00:03:47.585Z,0
2018-04-19T00:04:48.321Z,0
2018-04-19T00:05:49.047Z,0
2018-04-19T00:06:49.798Z,0
2018-04-19T00:07:50.525Z,0
2018-04-19T00:08:51.251Z,0
2018-04-19T00:09:51.990Z,0
2018-04-19T00:10:52.715Z,0
2018-04-19T00:11:53.532Z,0
2018-04-19T00:12:54.244Z,0
2018-04-19T00:13:54.978Z,0
2018-04-19T00:14:55.740Z,0
2018-04-19T00:15:56.472Z,0
2018-04-19T00:16:57.196Z,0
2018-04-19T00:17:57.932Z,0
2018-04-19T00:18:58.658Z,0
2018-04-19T00:19:59.416Z,0
2018-04-19T00:21:00.143Z,0
2018-04-19T00:22:00.869Z,0
2018-04-19T00:23:01.594Z,0
2018-04-19T00:24:02.324Z,0
2018-04-19T00:25:03.059Z,0
2018-04-19T00:26:03.784Z,0
2018-04-19T00:27:04.510Z,0
2018-04-19T00:28:05.237Z,0
2018-04-19T00:29:05.988Z,0
2018-04-19T00:30:06.716Z,0
2018-04-19T00:31:07.467Z,0
2018-04-19T00:32:08.193Z,0
2018-04-19T00:33:08.921Z,0
2018-04-19T00:34:09.648Z,0
2018-04-19T00:35:10.375Z,0
2018-04-19T00:36:11.105Z,0
2018-04-19T00:37:11.855Z,0
2018-04-19T00:38:12.593Z,0
2018-04-19T00:39:13.319Z,0
2018-04-19T00:40:14.058Z,0
2018-04-19T00:41:14.820Z,0
2018-04-19T00:42:15.569Z,0
2018-04-19T00:43:16.296Z,0
2018-04-19T00:44:17.047Z,0
2018-04-19T00:45:17.774Z,0
2018-04-19T00:46:18.512Z,0
2018-04-19T00:47:19.239Z,0
2018-04-19T00:48:19.991Z,0
2018-04-19T00:49:20.717Z,0
2018-04-19T00:50:21.446Z,0
2018-04-19T00:51:22.196Z,0
2018-04-19T00:52:22.921Z,0
2018-04-19T00:53:23.646Z,0
2018-04-19T00:54:24.375Z,0
2018-04-19T00:55:25.125Z,0
2018-04-19T00:56:25.873Z,0
2018-04-19T00:57:26.600Z,0
2018-04-19T00:58:27.338Z,0
2018-04-19T00:59:28.063Z,0
2018-04-19T01:00:28.788Z,0
2018-04-19T01:01:29.514Z,0
2018-04-19T01:02:30.240Z,0
2018-04-19T01:03:30.982Z,0
2018-04-19T01:04:31.704Z,0
2018-04-19T01:05:32.455Z,0
2018-04-19T01:06:33.200Z,0
2018-04-19T01:07:33.937Z,0
2018-04-19T01:08:34.662Z,0
2018-04-19T01:09:35.410Z,0
2018-04-19T01:10:36.147Z,0
2018-04-19T01:11:36.872Z,0
2018-04-19T01:12:37.617Z,0
2018-04-19T01:13:38.345Z,0
2018-04-19T01:14:39.069Z,0
2018-04-19T01:15:39.796Z,0
2018-04-19T01:16:40.558Z,0
2018-04-19T01:17:41.287Z,0
2018-04-19T01:18:42.021Z,0
2018-04-19T01:19:42.798Z,0
2018-04-19T01:20:43.522Z,0
2018-04-19T01:21:44.269Z,0
2018-04-19T01:22:45.021Z,0
2018-04-19T01:23:45.781Z,0
2018-04-19T01:24:46.552Z,0
2018-04-19T01:25:47.278Z,0
2018-04-19T01:26:48.006Z,0
2018-04-19T01:27:48.766Z,0
2018-04-19T01:28:49.490Z,0
2018-04-19T01:29:50.229Z,0
2018-04-19T01:30:50.952Z,0
2018-04-19T01:31:51.676Z,0
2018-04-19T01:32:52.401Z,0
2018-04-19T01:33:53.130Z,0
2018-04-19T01:34:53.845Z,0
2018-04-19T01:35:54.560Z,0
2018-04-19T01:36:55.285Z,0
2018-04-19T01:37:56.001Z,0
2018-04-19T01:38:56.716Z,0
2018-04-19T01:39:57.431Z,0
2018-04-19T01:40:58.146Z,0
2018-04-19T01:41:58.869Z,0
2018-04-19T01:42:59.575Z,0
2018-04-19T01:44:00.290Z,0
2018-04-19T01:45:01.018Z,0
2018-04-19T01:46:01.733Z,0
2018-04-19T01:47:02.451Z,0
2018-04-19T01:48:03.175Z,0
2018-04-19T01:49:03.890Z,0
2018-04-19T01:50:04.605Z,0
2018-04-19T01:51:05.321Z,0
2018-04-19T01:52:06.035Z,0
2018-04-19T01:53:06.753Z,0
2018-04-19T01:54:07.464Z,0
2018-04-19T01:55:08.179Z,0
2018-04-19T01:56:08.894Z,0
2018-04-19T01:57:09.609Z,0
2018-04-19T01:58:10.336Z,0
2018-04-19T01:59:11.051Z,0
2018-04-19T02:00:11.768Z,0
2018-04-19T02:01:12.483Z,0
2018-04-19T02:02:13.198Z,0
2018-04-19T02:03:13.917Z,0
2018-04-19T02:04:14.627Z,0
2018-04-19T02:05:15.352Z,0
2018-04-19T02:06:16.069Z,0
2018-04-19T02:07:16.784Z,0
2018-04-19T02:08:17.500Z,0
2018-04-19T02:09:18.215Z,0
2018-04-19T02:10:18.943Z,0
2018-04-19T02:11:19.660Z,0
2018-04-19T02:12:20.385Z,0
2018-04-19T02:13:21.100Z,0
2018-04-19T02:14:21.816Z,0
2018-04-19T02:15:22.528Z,0
2018-04-19T02:16:23.240Z,0
2018-04-19T02:17:23.953Z,0
2018-04-19T02:18:24.667Z,0
2018-04-19T02:19:25.393Z,0
2018-04-19T02:20:26.106Z,0
2018-04-19T02:21:26.820Z,0
2018-04-19T02:22:27.533Z,0
2018-04-19T02:23:28.248Z,0
2018-04-19T02:24:28.961Z,0
2018-04-19T02:25:29.674Z,0
2018-04-19T02:26:30.402Z,0
2018-04-19T02:27:31.116Z,0
2018-04-19T02:28:31.834Z,0
2018-04-19T02:29:32.548Z,0
2018-04-19T02:30:33.274Z,0
2018-04-19T02:31:33.989Z,0
2018-04-19T02:32:34.714Z,0
2018-04-19T02:33:35.427Z,0
2018-04-19T02:34:36.154Z,0
2018-04-19T02:35:36.866Z,0
2018-04-19T02:36:37.571Z,0
2018-04-19T02:37:38.285Z,0
2018-04-19T02:38:38.999Z,0
2018-04-19T02:39:39.718Z,0
2018-04-19T02:40:40.428Z,0
2018-04-19T02:41:41.142Z,0
2018-04-19T02:42:41.855Z,0
2018-04-19T02:43:42.568Z,0
2018-04-19T02:44:43.282Z,0
2018-04-19T02:45:44.011Z,0
2018-04-19T02:46:44.738Z,0
2018-04-19T02:47:45.464Z,0
2018-04-19T02:48:46.176Z,0
2018-04-19T02:49:46.893Z,0
2018-04-19T02:50:47.602Z,0
2018-04-19T02:51:48.317Z,0
2018-04-19T02:52:49.030Z,0
2018-04-19T02:53:49.743Z,0
2018-04-19T02:54:50.458Z,0
2018-04-19T02:55:51.171Z,0
2018-04-19T02:56:51.885Z,0
2018-04-19T02:57:52.599Z,0
2018-04-19T02:58:53.311Z,0
2018-04-19T02:59:54.025Z,0
2018-04-19T03:00:54.739Z,0
2018-04-19T03:01:55.456Z,0
2018-04-19T03:02:56.165Z,0
2018-04-19T03:03:56.900Z,0
2018-04-19T03:04:57.609Z,0
2018-04-19T03:05:58.333Z,0
2018-04-19T03:06:59.060Z,0
2018-04-19T03:07:59.791Z,0
2018-04-19T03:09:00.517Z,0
2018-04-19T03:10:01.241Z,0
2018-04-19T03:11:01.965Z,0
2018-04-19T03:12:02.684Z,0
2018-04-19T03:13:03.396Z,0
2018-04-19T03:14:04.117Z,0
2018-04-19T03:15:04.836Z,0
2018-04-19T03:16:05.560Z,0
2018-04-19T03:17:06.274Z,0
2018-04-19T03:18:07.004Z,0
2018-04-19T03:19:07.719Z,0
2018-04-19T03:20:08.435Z,0
2018-04-19T03:21:09.150Z,0
2018-04-19T03:22:09.863Z,0
2018-04-19T03:23:10.578Z,0
2018-04-19T03:24:11.292Z,0
2018-04-19T03:25:12.004Z,0
2018-04-19T03:26:12.729Z,0
2018-04-19T03:27:13.456Z,0
2018-04-19T03:28:14.171Z,0
2018-04-19T03:29:14.885Z,0
2018-04-19T03:30:15.613Z,0
2018-04-19T03:31:16.327Z,0
2018-04-19T03:32:17.042Z,0
2018-04-19T03:33:17.754Z,0
2018-04-19T03:34:18.468Z,0
2018-04-19T03:35:19.182Z,0
2018-04-19T03:36:19.894Z,0
2018-04-19T03:37:20.621Z,0
2018-04-19T03:38:21.334Z,0
2018-04-19T03:39:22.049Z,0
2018-04-19T03:40:22.763Z,0
2018-04-19T03:41:23.494Z,0
2018-04-19T03:42:24.209Z,0
2018-04-19T03:43:24.925Z,0
2018-04-19T03:44:25.650Z,0
2018-04-19T03:45:26.363Z,0
2018-04-19T03:46:27.077Z,0
2018-04-19T03:47:27.790Z,0
2018-04-19T03:48:28.504Z,0
2018-04-19T03:49:29.221Z,0
2018-04-19T03:50:29.948Z,0
2018-04-19T03:51:30.669Z,0
2018-04-19T03:52:31.386Z,0
2018-04-19T03:53:32.100Z,4
2018-04-19T03:54:32.814Z,4
2018-04-19T03:55:33.528Z,0
2018-04-19T03:56:34.253Z,4
2018-04-19T03:57:34.982Z,4
2018-04-19T03:58:35.705Z,4
2018-04-19T03:59:36.422Z,8
2018-04-19T04:00:37.148Z,8
2018-04-19T04:01:37.861Z,8
2018-04-19T04:02:38.575Z,8
2018-04-19T04:03:39.309Z,8
2018-04-19T04:04:40.030Z,12
2018-04-19T04:05:40.746Z,12
2018-04-19T04:06:41.462Z,16
2018-04-19T04:07:42.178Z,20
2018-04-19T04:08:42.893Z,20
2018-04-19T04:09:43.608Z,24
2018-04-19T04:10:44.322Z,28
2018-04-19T04:11:45.037Z,36
2018-04-19T04:12:45.754Z,40
2018-04-19T04:13:46.478Z,44
2018-04-19T04:14:47.209Z,52
2018-04-19T04:15:47.933Z,56
2018-04-19T04:16:48.648Z,68
2018-04-19T04:17:49.363Z,72
2018-04-19T04:18:50.079Z,80
2018-04-19T04:19:50.794Z,92
2018-04-19T04:20:51.511Z,104
2018-04-19T04:21:52.226Z,116
2018-04-19T04:22:52.941Z,128
2018-04-19T04:23:53.657Z,140
2018-04-19T04:24:54.386Z,152
2018-04-19T04:25:55.116Z,172
2018-04-19T04:26:55.830Z,188
2018-04-19T04:27:56.548Z,204
2018-04-19T04:28:57.263Z,220
2018-04-19T04:29:57.979Z,240
2018-04-19T04:30:58.697Z,260
2018-04-19T04:31:59.415Z,280
2018-04-19T04:33:00.132Z,300
2018-04-19T04:34:00.849Z,324
2018-04-19T04:35:01.565Z,344
2018-04-19T04:36:02.282Z,372
2018-04-19T04:37:03.000Z,392
2018-04-19T04:38:03.716Z,416
2018-04-19T04:39:04.432Z,444
2018-04-19T04:40:05.148Z,468
2018-04-19T04:41:05.864Z,496
2018-04-19T04:42:06.588Z,520
2018-04-19T04:43:07.302Z,544
2018-04-19T04:44:08.017Z,572
2018-04-19T04:45:08.748Z,600
2018-04-19T04:46:09.474Z,628
2018-04-19T04:47:10.193Z,656
2018-04-19T04:48:10.912Z,684
2018-04-19T04:49:11.644Z,708
2018-04-19T04:50:12.373Z,740
2018-04-19T04:51:13.098Z,768
2018-04-19T04:52:13.821Z,796
2018-04-19T04:53:14.553Z,820
2018-04-19T04:54:15.270Z,848
2018-04-19T04:55:16.000Z,880
2018-04-19T04:56:16.717Z,908
2018-04-19T04:57:17.436Z,944
2018-04-19T04:58:18.166Z,976
2018-04-19T04:59:18.884Z,1008
2018-04-19T05:00:19.613Z,1040
2018-04-19T05:01:20.331Z,1072
2018-04-19T05:02:21.049Z,1104
2018-04-19T05:03:21.770Z,1124
2018-04-19T05:04:22.492Z,1160
2018-04-19T05:05:23.212Z,1188
2018-04-19T05:06:23.929Z,1216
2018-04-19T05:07:24.648Z,1244
2018-04-19T05:08:25.366Z,1276
2018-04-19T05:09:26.081Z,1300
2018-04-19T05:10:26.801Z,1328
2018-04-19T05:11:27.530Z,1352
2018-04-19T05:12:28.249Z,1380
2018-04-19T05:13:28.967Z,1400
2018-04-19T05:14:29.689Z,1432
2018-04-19T05:15:30.400Z,1460
2018-04-19T05:16:31.119Z,1488
2018-04-19T05:17:31.838Z,1520
2018-04-19T05:18:32.555Z,1548
2018-04-19T05:19:33.273Z,1568
2018-04-19T05:20:34.004Z,1592
2018-04-19T05:21:34.723Z,1624
2018-04-19T05:22:35.443Z,1656
2018-04-19T05:23:36.161Z,1684
2018-04-19T05:24:36.891Z,1712
2018-04-19T05:25:37.622Z,1740
2018-04-19T05:26:38.342Z,1764
2018-04-19T05:27:39.060Z,1792
2018-04-19T05:28:39.788Z,1816
2018-04-19T05:29:40.519Z,1840
2018-04-19T05:30:41.266Z,1860
2018-04-19T05:31:42.020Z,1892
2018-04-19T05:32:42.717Z,1912
2018-04-19T05:33:43.435Z,1932
2018-04-19T05:34:44.154Z,1960
2018-04-19T05:35:44.877Z,1992
2018-04-19T05:36:45.594Z,2016
2018-04-19T05:37:46.324Z,2044
2018-04-19T05:38:47.044Z,2068
2018-04-19T05:39:47.762Z,2092
2018-04-19T05:40:48.481Z,2120
2018-04-19T05:41:49.197Z,2140
2018-04-19T05:42:49.919Z,2164
2018-04-19T05:43:50.638Z,2196
2018-04-19T05:44:51.356Z,2220
2018-04-19T05:45:52.075Z,2248
2018-04-19T05:46:52.793Z,2280
2018-04-19T05:47:53.526Z,2304
2018-04-19T05:48:54.257Z,2328
2018-04-19T05:49:54.976Z,2356
2018-04-19T05:50:55.712Z,2384
2018-04-19T05:51:56.432Z,2412
2018-04-19T05:52:57.147Z,2436
2018-04-19T05:53:57.878Z,2464
2018-04-19T05:54:58.595Z,2492
2018-04-19T05:55:59.328Z,2520
2018-04-19T05:57:00.047Z,2544
2018-04-19T05:58:00.765Z,2564
2018-04-19T05:59:01.497Z,2592
2018-04-19T06:00:02.216Z,2612
2018-04-19T06:01:02.950Z,2640
2018-04-19T06:02:03.682Z,2660
2018-04-19T06:03:04.441Z,2692
2018-04-19T06:04:05.126Z,2708
2018-04-19T06:05:05.846Z,2744
2018-04-19T06:06:06.562Z,2760
2018-04-19T06:07:07.283Z,2788
2018-04-19T06:08:08.016Z,2812
2018-04-19T06:09:08.734Z,2836
2018-04-19T06:10:09.454Z,2856
2018-04-19T06:11:10.178Z,2884
2018-04-19T06:12:10.909Z,2908
2018-04-19T06:13:11.631Z,2916
2018-04-19T06:14:12.352Z,2952
2018-04-19T06:15:13.076Z,2976
2018-04-19T06:16:13.794Z,3004
2018-04-19T06:17:14.515Z,3032
2018-04-19T06:18:15.250Z,3056
2018-04-19T06:19:15.969Z,3092
2018-04-19T06:20:16.696Z,3128
2018-04-19T06:21:17.427Z,3180
2018-04-19T06:22:18.148Z,3248
2018-04-19T06:23:18.880Z,3340
2018-04-19T06:24:19.600Z,3480
2018-04-19T06:25:20.324Z,3668
2018-04-19T06:26:21.046Z,3916
2018-04-19T06:27:21.768Z,4188
2018-04-19T06:28:22.500Z,4436
2018-04-19T06:29:23.221Z,4704
2018-04-19T06:30:23.980Z,4924
2018-04-19T06:31:24.677Z,5104
2018-04-19T06:32:25.399Z,5212
2018-04-19T06:33:26.120Z,5312
2018-04-19T06:34:26.855Z,5420
2018-04-19T06:35:27.580Z,5520
2018-04-19T06:36:28.303Z,5636
2018-04-19T06:37:29.027Z,5648
2018-04-19T06:38:29.751Z,5956
2018-04-19T06:39:30.475Z,6140
2018-04-19T06:40:31.199Z,6416
2018-04-19T06:41:31.935Z,6916
2018-04-19T06:42:32.648Z,9228
2018-04-19T06:43:33.373Z,15808
2018-04-19T06:44:34.100Z,21920
2018-04-19T06:45:34.836Z,22176
2018-04-19T06:46:35.560Z,20960
2018-04-19T06:47:36.290Z,17248
2018-04-19T06:48:37.018Z,12392
2018-04-19T06:49:37.746Z,13884
2018-04-19T06:50:38.472Z,17920
2018-04-19T06:51:39.201Z,21312
2018-04-19T06:52:39.930Z,25824
2018-04-19T06:53:40.657Z,28736
2018-04-19T06:54:41.386Z,28416
2018-04-19T06:55:42.129Z,27488
2018-04-19T06:56:42.882Z,26368
2018-04-19T06:57:43.623Z,26336
2018-04-19T06:58:44.374Z,26752
2018-04-19T06:59:45.117Z,27744
2018-04-19T07:00:45.850Z,29280
2018-04-19T07:01:46.614Z,29760
2018-04-19T07:02:47.336Z,30272
2018-04-19T07:03:48.067Z,31712
2018-04-19T07:04:48.802Z,33152
2018-04-19T07:05:49.534Z,33472
2018-04-19T07:06:50.269Z,33568
2018-04-19T07:07:50.999Z,33504
2018-04-19T07:08:51.742Z,34016
2018-04-19T07:09:52.479Z,35392
2018-04-19T07:10:53.211Z,36416
2018-04-19T07:11:53.953Z,36000
2018-04-19T07:12:54.685Z,35360
2018-04-19T07:13:55.414Z,34752
2018-04-19T07:14:56.156Z,34976
2018-04-19T07:15:56.886Z,36320
2018-04-19T07:16:57.621Z,37504
2018-04-19T07:17:58.350Z,38848
2018-04-19T07:18:59.091Z,39680
2018-04-19T07:19:59.820Z,39712
2018-04-19T07:21:00.552Z,39296
2018-04-19T07:22:01.295Z,37984
2018-04-19T07:23:02.029Z,37344
2018-04-19T07:24:02.759Z,37888
2018-04-19T07:25:03.487Z,38976
2018-04-19T07:26:04.217Z,41760
2018-04-19T07:27:04.960Z,43008
2018-04-19T07:28:05.691Z,43552
2018-04-19T07:29:06.422Z,42144
2018-04-19T07:30:07.150Z,41984
2018-04-19T07:31:07.881Z,42944
2018-04-19T07:32:08.650Z,43712
2018-04-19T07:33:09.345Z,44416
2018-04-19T07:34:10.088Z,44192
2018-04-19T07:35:10.834Z,44064
2018-04-19T07:36:11.571Z,45152
2018-04-19T07:37:12.308Z,46688
2018-04-19T07:38:13.042Z,46080
2018-04-19T07:39:13.787Z,46112
2018-04-19T07:40:14.522Z,44992
2018-04-19T07:41:15.252Z,44800
2018-04-19T07:42:15.985Z,46080
2018-04-19T07:43:16.719Z,47520
2018-04-19T07:44:17.450Z,49408
2018-04-19T07:45:18.183Z,49824
2018-04-19T07:46:18.929Z,48704
2018-04-19T07:47:19.662Z,47584
2018-04-19T07:48:20.395Z,46848
2018-04-19T07:49:21.130Z,46816
2018-04-19T07:50:21.866Z,37152
2018-04-19T07:51:22.602Z,20032
2018-04-19T07:52:23.336Z,13544
2018-04-19T07:53:24.071Z,12328
2018-04-19T07:54:24.805Z,11744
2018-04-19T07:55:25.539Z,11376
2018-04-19T07:56:26.276Z,11156
2018-04-19T07:57:27.009Z,11012
2018-04-19T07:58:27.745Z,10996
2018-04-19T07:59:28.492Z,10940
2018-04-19T08:00:29.240Z,10940
2018-04-19T08:01:29.976Z,10940
2018-04-19T08:02:30.711Z,10992
2018-04-19T08:03:31.459Z,11016
2018-04-19T08:04:32.197Z,11056
2018-04-19T08:05:32.936Z,10932
2018-04-19T08:06:33.667Z,11284
2018-04-19T08:07:34.406Z,11392
2018-04-19T08:08:35.137Z,11544
2018-04-19T08:09:35.874Z,11716
2018-04-19T08:10:36.624Z,12000
2018-04-19T08:11:37.373Z,12328
2018-04-19T08:12:38.124Z,12904
2018-04-19T08:13:38.857Z,14076
2018-04-19T08:14:39.608Z,21248
2018-04-19T08:15:40.345Z,40992
2018-04-19T08:16:41.083Z,53216
2018-04-19T08:17:41.837Z,55936
2018-04-19T08:18:42.575Z,57536
2018-04-19T08:19:43.326Z,58144
2018-04-19T08:20:44.064Z,57792
2018-04-19T08:21:44.816Z,59328
2018-04-19T08:22:45.552Z,59616
2018-04-19T08:23:46.294Z,59872
2018-04-19T08:24:47.037Z,61792
2018-04-19T08:25:47.784Z,61472
2018-04-19T08:26:48.542Z,63328
2018-04-19T08:27:49.284Z,64832
2018-04-19T08:28:50.024Z,63808
2018-04-19T08:29:50.764Z,64160
2018-04-19T08:30:51.521Z,63392
2018-04-19T08:31:52.266Z,62816
2018-04-19T08:32:53.023Z,63328
2018-04-19T08:33:53.763Z,64224
2018-04-19T08:34:54.507Z,63008
2018-04-19T08:35:55.257Z,63264
2018-04-19T08:36:56.013Z,64032
2018-04-19T08:37:56.772Z,64160
2018-04-19T08:38:57.518Z,64704
2018-04-19T08:39:58.273Z,64032
2018-04-19T08:40:59.035Z,65376
2018-04-19T08:41:59.784Z,66368
2018-04-19T08:43:00.545Z,66560
2018-04-19T08:44:01.290Z,65984
2018-04-19T08:45:02.038Z,65664
2018-04-19T08:46:02.783Z,66592
2018-04-19T08:47:03.530Z,65824
2018-04-19T08:48:04.288Z,64672
2018-04-19T08:49:05.033Z,65728
2018-04-19T08:50:05.780Z,65152
2018-04-19T08:51:06.528Z,68000
2018-04-19T08:52:07.289Z,68256
2018-04-19T08:53:08.048Z,69472
2018-04-19T08:54:08.810Z,68640
2018-04-19T08:55:09.551Z,69728
2018-04-19T08:56:10.294Z,70464
2018-04-19T08:57:11.037Z,70464
2018-04-19T08:58:11.785Z,68768
2018-04-19T08:59:12.545Z,69152
2018-04-19T09:00:13.286Z,70848
2018-04-19T09:01:14.032Z,71680
2018-04-19T09:02:14.779Z,72800
2018-04-19T09:03:15.528Z,71872
2018-04-19T09:04:16.274Z,73024
2018-04-19T09:05:17.014Z,73920
2018-04-19T09:06:17.757Z,73472
2018-04-19T09:07:18.500Z,73088
2018-04-19T09:08:19.247Z,73024
2018-04-19T09:09:19.991Z,72384
2018-04-19T09:10:20.732Z,73632
2018-04-19T09:11:21.500Z,67712
2018-04-19T09:12:22.246Z,71232
2018-04-19T09:13:23.002Z,70560
2018-04-19T09:14:23.748Z,72576
2018-04-19T09:15:24.492Z,72256
2018-04-19T09:16:25.249Z,74112
2018-04-19T09:17:25.993Z,74144
2018-04-19T09:18:26.750Z,72832
2018-04-19T09:19:27.538Z,72256
2018-04-19T09:20:28.237Z,73600
2018-04-19T09:21:28.982Z,74400
2018-04-19T09:22:29.725Z,71776
2018-04-19T09:23:30.472Z,72352
2018-04-19T09:24:31.219Z,71104
2018-04-19T09:25:31.957Z,72224
2018-04-19T09:26:32.704Z,70976
2018-04-19T09:27:33.459Z,73696
2018-04-19T09:28:34.215Z,74304
2018-04-19T09:29:34.959Z,73920
2018-04-19T09:30:35.703Z,77088
2018-04-19T09:31:36.446Z,78208
2018-04-19T09:32:37.191Z,76864
2018-04-19T09:33:37.949Z,79456
2018-04-19T09:34:38.690Z,78528
2018-04-19T09:35:39.433Z,81376
2018-04-19T09:36:40.175Z,79296
2018-04-19T09:37:40.919Z,80352
2018-04-19T09:38:41.663Z,81600
2018-04-19T09:39:42.418Z,77600
2018-04-19T09:40:43.162Z,82624
2018-04-19T09:41:43.906Z,79232
2018-04-19T09:42:44.652Z,80608
2018-04-19T09:43:45.395Z,81600
2018-04-19T09:44:46.139Z,71584
2018-04-19T09:45:46.880Z,81664
2018-04-19T09:46:47.624Z,79904
2018-04-19T09:47:48.373Z,83904
2018-04-19T09:48:49.120Z,78912
2018-04-19T09:49:49.874Z,79296
2018-04-19T09:50:50.630Z,80544
2018-04-19T09:52:52.116Z,79520
2018-04-19T09:53:52.911Z,80864
2018-04-19T09:54:53.616Z,80736
2018-04-19T09:55:54.358Z,80384
2018-04-19T09:56:55.103Z,83968
2018-04-19T09:57:55.843Z,81216
2018-04-19T09:58:56.606Z,82016
2018-04-19T09:59:57.329Z,72576
2018-04-19T10:00:58.075Z,80704
2018-04-19T10:01:58.814Z,83584
2018-04-19T10:02:59.558Z,85344
2018-04-19T10:04:00.296Z,82048
2018-04-19T10:05:01.049Z,83008
2018-04-19T10:06:01.794Z,79808
2018-04-19T10:07:02.540Z,76032
2018-04-19T10:08:03.294Z,78368
2018-04-19T10:09:04.038Z,72832
2018-04-19T10:10:04.795Z,79328
2018-04-19T10:11:05.534Z,73888
2018-04-19T10:12:06.287Z,75840
2018-04-19T10:13:07.035Z,82880
2018-04-19T10:14:07.771Z,84160
2018-04-19T10:15:08.525Z,84256
2018-04-19T10:16:09.301Z,85440
2018-04-19T10:17:10.007Z,85568
2018-04-19T10:18:10.745Z,86208
2018-04-19T10:19:11.490Z,86944
2018-04-19T10:20:12.247Z,86656
2018-04-19T10:21:12.995Z,85120
2018-04-19T10:22:13.729Z,84256
2018-04-19T10:23:14.480Z,82144
2018-04-19T10:24:15.236Z,86208
2018-04-19T10:25:15.976Z,83552
2018-04-19T10:26:16.720Z,83328
2018-04-19T10:27:17.480Z,84928
2018-04-19T10:28:18.215Z,85152
2018-04-19T10:29:18.955Z,86976
2018-04-19T10:30:19.696Z,86752
2018-04-19T10:31:20.434Z,85696
2018-04-19T10:32:21.192Z,87168
2018-04-19T10:33:21.934Z,86880
2018-04-19T10:34:22.687Z,76704
2018-04-19T10:35:23.427Z,70656
2018-04-19T10:36:24.165Z,91872
2018-04-19T10:37:24.914Z,88512
2018-04-19T10:38:25.654Z,86112
2018-04-19T10:39:26.395Z,86240
2018-04-19T10:40:27.134Z,64192
2018-04-19T10:41:27.877Z,83360
2018-04-19T10:42:28.634Z,84160
2018-04-19T10:43:29.374Z,76768
2018-04-19T10:44:30.117Z,85472
2018-04-19T10:45:30.859Z,90592
2018-04-19T10:46:31.600Z,90752
2018-04-19T10:47:32.346Z,90112
2018-04-19T10:48:33.082Z,91232
2018-04-19T10:49:33.825Z,90112
2018-04-19T10:50:34.571Z,89024
2018-04-19T10:51:35.320Z,89504
2018-04-19T10:52:36.062Z,89888
2018-04-19T10:53:36.803Z,93216
2018-04-19T10:54:37.543Z,92064
2018-04-19T10:55:38.285Z,90880
2018-04-19T10:56:39.035Z,94976
2018-04-19T10:57:39.778Z,94752
2018-04-19T10:58:40.517Z,93344
2018-04-19T10:59:41.261Z,92032
2018-04-19T11:00:42.003Z,93760
2018-04-19T11:01:42.745Z,91424
2018-04-19T11:02:43.486Z,91744
2018-04-19T11:03:44.227Z,93440
2018-04-19T11:04:44.969Z,91584
2018-04-19T11:05:45.724Z,88960
2018-04-19T11:06:46.462Z,91072
2018-04-19T11:07:47.217Z,93056
2018-04-19T11:08:47.955Z,91648
2018-04-19T11:09:48.711Z,92032
2018-04-19T11:10:49.452Z,89728
2018-04-19T11:11:50.194Z,88160
2018-04-19T11:12:50.939Z,91104
2018-04-19T11:13:51.675Z,86816
2018-04-19T11:14:52.417Z,84000
2018-04-19T11:15:53.177Z,83008
2018-04-19T11:16:53.909Z,86560
2018-04-19T11:17:54.649Z,82656
2018-04-19T11:18:55.389Z,84672
2018-04-19T11:19:56.131Z,87680
2018-04-19T11:20:56.872Z,83232
2018-04-19T11:21:57.617Z,83520
2018-04-19T11:22:58.355Z,86176
2018-04-19T11:23:59.096Z,84704
2018-04-19T11:24:59.839Z,82400
2018-04-19T11:26:00.575Z,86016
2018-04-19T11:27:01.316Z,88736
2018-04-19T11:28:02.054Z,88192
2018-04-19T11:29:02.792Z,89312
2018-04-19T11:30:03.541Z,82944
2018-04-19T11:31:04.292Z,78304
2018-04-19T11:32:05.035Z,78528
2018-04-19T11:33:05.783Z,77984
2018-04-19T11:34:06.535Z,76320
2018-04-19T11:35:07.279Z,75968
2018-04-19T11:36:08.029Z,74656
2018-04-19T11:37:08.767Z,69056
2018-04-19T11:38:09.511Z,72736
2018-04-19T11:39:10.263Z,69088
2018-04-19T11:40:10.997Z,69440
2018-04-19T11:41:11.735Z,72064
2018-04-19T11:42:12.480Z,70560
2018-04-19T11:43:13.214Z,72064
2018-04-19T11:44:13.962Z,73056
2018-04-19T11:45:14.700Z,71808
2018-04-19T11:46:15.437Z,69824
2018-04-19T11:47:16.177Z,70976
2018-04-19T11:48:16.915Z,71552
2018-04-19T11:49:17.655Z,74048
2018-04-19T11:50:18.394Z,75264
2018-04-19T11:51:19.145Z,68640
2018-04-19T11:52:19.880Z,64640
2018-04-19T11:53:20.617Z,70304
2018-04-19T11:54:21.359Z,67904
2018-04-19T11:55:22.099Z,67232
2018-04-19T11:56:22.837Z,76064
2018-04-19T11:57:23.576Z,76928
2018-04-19T11:58:24.319Z,81408
2018-04-19T11:59:25.064Z,80512
2018-04-19T12:00:25.802Z,76960
2018-04-19T12:01:26.540Z,79968
2018-04-19T12:02:27.277Z,82496
2018-04-19T12:03:28.015Z,79104
2018-04-19T12:04:28.754Z,75456
2018-04-19T12:05:29.505Z,78656
2018-04-19T12:06:30.243Z,78368
2018-04-19T12:07:31.004Z,76000
2018-04-19T12:08:31.719Z,82080
2018-04-19T12:09:32.460Z,80768
2018-04-19T12:10:33.210Z,76512
2018-04-19T12:11:33.951Z,77120
2018-04-19T12:12:34.686Z,78080
2018-04-19T12:13:35.486Z,80384
2018-04-19T12:14:36.167Z,81600
2018-04-19T12:15:36.904Z,85984
2018-04-19T12:16:37.642Z,87232
2018-04-19T12:17:38.384Z,81600
2018-04-19T12:18:39.133Z,83424
2018-04-19T12:19:39.870Z,80000
2018-04-19T12:20:40.610Z,81568
2018-04-19T12:21:41.347Z,80640
2018-04-19T12:22:42.089Z,81600
2018-04-19T12:23:42.837Z,83264
2018-04-19T12:24:43.588Z,83680
2018-04-19T12:25:44.325Z,82496
2018-04-19T12:26:45.075Z,84576
2018-04-19T12:27:45.814Z,83136
2018-04-19T12:28:46.564Z,86112
2018-04-19T12:29:47.305Z,81632
2018-04-19T12:30:48.052Z,57408
2018-04-19T12:31:48.791Z,79904
2018-04-19T12:32:49.529Z,81152
2018-04-19T12:33:50.269Z,80896
2018-04-19T12:34:51.008Z,72000
2018-04-19T12:35:51.757Z,66624
2018-04-19T12:36:52.492Z,65376
2018-04-19T12:37:53.233Z,63488
2018-04-19T12:38:53.971Z,70400
2018-04-19T12:39:54.706Z,80544
2018-04-19T12:40:55.442Z,84096
2018-04-19T12:41:56.180Z,77984
2018-04-19T12:42:56.924Z,75744
2018-04-19T12:43:57.680Z,74912
2018-04-19T12:44:58.427Z,69984
2018-04-19T12:45:59.164Z,70944
2018-04-19T12:46:59.899Z,67840
2018-04-19T12:48:00.638Z,63264
2018-04-19T12:49:01.377Z,77152
2018-04-19T12:50:02.118Z,74624
2018-04-19T12:51:02.868Z,65056
2018-04-19T12:52:03.607Z,74976
2018-04-19T12:53:04.344Z,78272
2018-04-19T12:54:05.085Z,62912
2018-04-19T12:55:05.824Z,65600
2018-04-19T12:56:06.577Z,64160
2018-04-19T12:57:07.330Z,65088
2018-04-19T12:58:08.070Z,60800
2018-04-19T12:59:08.809Z,60704
2018-04-19T13:00:09.551Z,59840
2018-04-19T13:01:10.293Z,60480
2018-04-19T13:02:11.034Z,67104
2018-04-19T13:03:11.771Z,66016
2018-04-19T13:04:12.518Z,67136
2018-04-19T13:05:13.259Z,68032
2018-04-19T13:06:14.002Z,65312
2018-04-19T13:07:14.737Z,66272
2018-04-19T13:08:15.484Z,65632
2018-04-19T13:09:16.228Z,65376
2018-04-19T13:10:16.976Z,63808
2018-04-19T13:11:17.713Z,66816
2018-04-19T13:12:18.453Z,67648
2018-04-19T13:13:19.191Z,68384
2018-04-19T13:14:19.944Z,69216
2018-04-19T13:15:20.683Z,66912
2018-04-19T13:16:21.420Z,65248
2018-04-19T13:17:22.160Z,66976
2018-04-19T13:18:22.898Z,63648
2018-04-19T13:19:23.637Z,62080
2018-04-19T13:20:24.374Z,66016
2018-04-19T13:21:25.115Z,64896
2018-04-19T13:22:25.856Z,62880
2018-04-19T13:23:26.607Z,61376
2018-04-19T13:24:27.345Z,56224
2018-04-19T13:25:28.094Z,57440
2018-04-19T13:26:28.829Z,57440
2018-04-19T13:27:29.566Z,57600
2018-04-19T13:28:30.304Z,60544
2018-04-19T13:29:31.043Z,59104
2018-04-19T13:30:31.777Z,58080
2018-04-19T13:31:32.517Z,57888
2018-04-19T13:32:33.254Z,55808
2018-04-19T13:33:34.007Z,53952
2018-04-19T13:34:34.747Z,56064
2018-04-19T13:35:35.488Z,55584
2018-04-19T13:36:36.221Z,55072
2018-04-19T13:37:36.957Z,56032
2018-04-19T13:38:37.694Z,54816
2018-04-19T13:39:38.432Z,52544
2018-04-19T13:40:39.175Z,49120
2018-04-19T13:41:39.915Z,30272
2018-04-19T13:42:40.652Z,17088